Wyndham P.O., Western Australia

4:03 AM AWST on August 31, 2015 (GMT +0800)
Kununurra | | Change Station
CLOSE
Current Station
Airport
Location: Kununurra,
Elevation: 144 ft
Nearby Weather Stations

Elev 144 ft 15.78 °S, 128.71 °E | Updated 33 minutes ago

Overcast
Overcast
72 °F
Feels Like 72 °F
N
5
Wind Variable Wind from East

Today
High -- | Low -- °F
--% Chance of Precip.
Yesterday
High -- | Low -- °F
Precip. -- in
5:34 AM 5:21 PM
Full, 98% visible
Pressure 29.92 in
Visibility 6.2 miles
Clouds Overcast 10500 ft
Dew Point 63 °F
Humidity 73%
Rainfall 0.00 in
Snow Depth Not available.
UV 0 out of 12
Pollen Not available.
Air Quality Not available.
Flu Activity Not available.
METAR YPKU 301930Z AUTO 08004KT 320V110 9999 // OVC105 22/17 Q1013
Pressure 29.92 in
Visibility 6.2 miles
Clouds Overcast 10500 ft
Dew Point 63 °F
Humidity 73%
Rainfall 0.00 in
Snow Depth Not available.
UV 0 out of 12
Pollen Not available.
Air Quality Not available.
Flu Activity Not available.
METAR YPKU 301930Z AUTO 08004KT 320V110 9999 // OVC105 22/17 Q1013

10-Day Weather Forecast

×

Almanac

Astronomy

Aug. 31, 2015 Rise Set
Actual Time
Civil Twilight
Nautical Twilight
Astronomical Twilight
Moon
Length of Visible Light
Length of Day
Tomorrow will be .
, % of the Moon is Illuminated

Today's Extremes

Country Highs Country Lows

Community

WunderPhotos

Upload Photos

1,851,048 photos uploaded!

WunderBlogs® & News

Nearby

Air Quality

  Air Quality AQ Index Pollutant
Not available.

Snow Depth

Station Depth Elevation

Earthquake Activity

City Distance Mag. Time & Date
Minimum magnitude displayed is 2.5.

Coastal Water Temperatures

Place Temperature

Stations

Nearby Weather Stations

Station Location Temp. Windchill Dew Point Humidity Wind Precip. Elev Updated Type